Time;durP1;ratioP1;P1;durP2;ratioP2;P2;SDS_P1;SDS_P2;PMS_P1;PMS_P2;Temp;Humidity;BMP_temperature;BMP_pressure;BME280_temperature;BME280_humidity;BME280_pressure;Samples;Min_cycle;Max_cycle;Signal;HPM_P1;HPM_P2
2022/12/28 00:01:06;;;;;;;8.80;4.63;;;4.30;99.90;;;;;;5062629;28;20225;-79
2022/12/28 00:03:33;;;;;;;8.70;4.60;;;4.40;99.90;;;;;;5062109;28;20220;-79
2022/12/28 00:06:01;;;;;;;5.77;3.80;;;4.40;99.90;;;;;;5064740;28;20255;-79
2022/12/28 00:08:28;;;;;;;9.23;3.90;;;4.40;99.90;;;;;;5062232;28;20224;-79
2022/12/28 00:11:00;;;;;;;7.53;3.90;;;4.40;99.90;;;;;;5067805;28;20926;-79
2022/12/28 00:13:27;;;;;;;9.50;3.70;;;4.40;99.90;;;;;;5065377;28;20232;-79
2022/12/28 00:15:54;;;;;;;7.03;3.57;;;4.40;99.90;;;;;;5065431;28;20259;-79
2022/12/28 00:18:21;;;;;;;5.20;3.40;;;4.40;99.90;;;;;;5064944;28;20304;-79
2022/12/28 00:20:56;;;;;;;5.70;3.27;;;4.40;99.90;;;;;;5062488;28;20228;-80
2022/12/28 00:23:24;;;;;;;7.83;3.47;;;4.40;99.90;;;;;;5058939;28;20217;-80
2022/12/28 00:25:52;;;;;;;6.43;2.80;;;4.40;99.90;;;;;;5063705;28;20215;-79
2022/12/28 00:28:20;;;;;;;7.03;3.10;;;4.40;99.90;;;;;;5060767;28;20225;-79
2022/12/28 00:30:47;;;;;;;5.50;3.00;;;4.30;99.90;;;;;;5059203;28;20321;-80
2022/12/28 00:33:15;;;;;;;6.03;2.87;;;4.40;99.90;;;;;;5062366;28;20243;-80
2022/12/28 00:35:42;;;;;;;5.60;2.87;;;4.30;99.90;;;;;;5061316;28;20230;-79
2022/12/28 00:38:09;;;;;;;6.67;2.90;;;4.40;99.90;;;;;;5056954;28;20252;-79
2022/12/28 00:40:37;;;;;;;8.03;2.90;;;4.40;99.90;;;;;;5060558;28;20218;-79
2022/12/28 00:43:04;;;;;;;5.83;2.57;;;4.40;99.90;;;;;;5060266;28;20304;-79
2022/12/28 00:45:30;;;;;;;8.67;3.13;;;4.40;99.90;;;;;;5065304;28;20219;-79
2022/12/28 00:47:57;;;;;;;7.87;2.70;;;4.30;99.90;;;;;;5056847;28;20761;-79
2022/12/28 00:50:24;;;;;;;7.30;2.43;;;4.30;99.90;;;;;;5058612;28;20501;-79
2022/12/28 00:52:53;;;;;;;5.27;2.50;;;4.40;99.90;;;;;;5057589;28;20295;-79
2022/12/28 00:55:20;;;;;;;5.17;2.50;;;4.30;99.90;;;;;;5060750;28;20217;-79
2022/12/28 00:57:48;;;;;;;6.13;2.20;;;4.30;99.90;;;;;;5059938;28;20369;-79
2022/12/28 01:00:16;;;;;;;4.23;2.00;;;4.30;99.90;;;;;;5060414;28;20220;-79
2022/12/28 01:02:42;;;;;;;6.27;2.57;;;4.30;99.90;;;;;;5072335;28;20212;-79
2022/12/28 01:05:09;;;;;;;4.70;2.20;;;4.30;99.90;;;;;;5057441;28;21937;-79
2022/12/28 01:07:36;;;;;;;4.07;1.90;;;4.30;99.90;;;;;;5057809;28;20223;-79
2022/12/28 01:10:03;;;;;;;5.00;2.57;;;4.30;99.90;;;;;;5063308;28;20222;-78
2022/12/28 01:12:30;;;;;;;4.57;1.70;;;4.30;99.90;;;;;;5058894;28;20229;-78
2022/12/28 01:15:00;;;;;;;5.63;2.03;;;4.30;99.90;;;;;;5072851;28;20238;-78
2022/12/28 01:17:27;;;;;;;5.97;1.80;;;4.30;99.90;;;;;;5057015;28;20244;-78
2022/12/28 01:19:54;;;;;;;5.77;2.00;;;4.30;99.90;;;;;;5057510;28;20262;-78
2022/12/28 01:22:21;;;;;;;3.00;1.73;;;4.30;99.90;;;;;;5057578;28;20287;-79
2022/12/28 01:24:48;;;;;;;5.43;2.07;;;4.20;99.90;;;;;;5063065;28;20232;-79
2022/12/28 01:27:14;;;;;;;4.80;1.70;;;4.30;99.90;;;;;;5062624;28;20228;-80
2022/12/28 01:29:41;;;;;;;4.63;1.60;;;4.30;99.90;;;;;;5068655;28;20800;-79
2022/12/28 01:32:09;;;;;;;6.70;1.97;;;4.30;99.90;;;;;;5059796;28;20644;-79
2022/12/28 01:34:36;;;;;;;7.30;2.10;;;4.30;99.90;;;;;;5062646;28;20734;-79
2022/12/28 01:37:03;;;;;;;7.33;1.67;;;4.20;99.90;;;;;;5068158;28;20463;-78
2022/12/28 01:39:30;;;;;;;5.83;1.83;;;4.20;99.90;;;;;;5057167;28;20235;-79
2022/12/28 01:41:57;;;;;;;5.50;1.63;;;4.20;99.90;;;;;;5058071;28;20230;-78
2022/12/28 01:44:43;;;;;;;3.77;1.50;;;4.20;99.90;;;;;;5065239;28;20231;-78
2022/12/28 01:47:14;;;;;;;3.43;1.57;;;4.20;99.90;;;;;;5056577;28;20231;-78
2022/12/28 01:49:46;;;;;;;4.10;1.57;;;4.20;99.90;;;;;;5061228;28;20234;-77
2022/12/28 01:52:18;;;;;;;5.00;1.80;;;4.20;99.90;;;;;;5061481;28;20221;-78
2022/12/28 01:54:49;;;;;;;5.43;1.60;;;4.20;99.90;;;;;;5075512;28;20221;-78
2022/12/28 01:57:19;;;;;;;6.33;2.23;;;4.20;99.90;;;;;;5058915;28;20229;-78
2022/12/28 01:59:49;;;;;;;3.30;1.67;;;4.20;99.90;;;;;;5074664;28;20319;-78
2022/12/28 02:02:17;;;;;;;6.60;1.43;;;4.20;99.90;;;;;;5072314;28;20790;-78
2022/12/28 02:04:46;;;;;;;4.70;1.57;;;4.30;99.90;;;;;;5061041;28;20301;-77
2022/12/28 02:07:16;;;;;;;10.47;2.07;;;4.20;99.90;;;;;;5070972;28;20228;-77
2022/12/28 02:09:43;;;;;;;5.13;1.40;;;4.30;99.90;;;;;;5058121;28;20232;-77
2022/12/28 02:12:15;;;;;;;2.90;1.33;;;4.30;99.90;;;;;;5057725;28;20215;-77
2022/12/28 02:14:43;;;;;;;3.53;1.60;;;4.30;99.90;;;;;;5059748;28;20217;-78
2022/12/28 02:17:12;;;;;;;4.20;1.60;;;4.30;99.90;;;;;;5062939;28;20236;-77
2022/12/28 02:19:45;;;;;;;4.13;1.50;;;4.30;99.90;;;;;;5063732;28;20307;-78
2022/12/28 02:22:39;;;;;;;4.17;1.50;;;4.30;99.90;;;;;;5065259;28;20235;-78
2022/12/28 02:25:40;;;;;;;3.43;1.80;;;4.40;99.90;;;;;;5062322;28;20220;-78
2022/12/28 02:28:17;;;;;;;5.93;1.40;;;4.40;99.90;;;;;;5062867;28;20240;-78
2022/12/28 02:30:51;;;;;;;7.37;1.80;;;4.40;99.90;;;;;;5064975;28;20767;-78
2022/12/28 02:33:26;;;;;;;7.37;1.63;;;4.40;99.90;;;;;;5074598;28;20900;-78
2022/12/28 02:35:58;;;;;;;3.97;1.27;;;4.40;99.90;;;;;;5065521;28;20219;-79
2022/12/28 02:38:31;;;;;;;6.53;1.30;;;4.40;99.90;;;;;;5062315;28;20523;-78
2022/12/28 02:41:03;;;;;;;4.10;1.17;;;4.40;99.90;;;;;;5062232;28;20770;-78
2022/12/28 02:43:32;;;;;;;3.40;1.50;;;4.50;99.90;;;;;;5062217;28;20228;-79
2022/12/28 02:51:55;;;;;;;3.47;1.50;;;4.50;99.90;;;;;;5039003;28;20740;-78
2022/12/28 02:57:42;;;;;;;6.23;1.40;;;4.50;99.90;;;;;;5063284;28;20247;-79
2022/12/28 03:00:12;;;;;;;4.70;1.43;;;4.50;99.90;;;;;;5081498;28;20275;-78
2022/12/28 03:02:59;;;;;;;3.83;1.33;;;4.50;99.90;;;;;;5065426;28;20351;-78
2022/12/28 03:08:30;;;;;;;6.77;1.57;;;4.50;99.90;;;;;;5078661;28;20216;-78
2022/12/28 03:11:03;;;;;;;6.63;1.77;;;4.50;99.90;;;;;;5060768;28;20320;-78
2022/12/28 03:13:44;;;;;;;3.43;1.53;;;4.50;99.90;;;;;;5069175;28;20231;-78
2022/12/28 03:16:19;;;;;;;5.23;1.33;;;4.50;99.90;;;;;;5079699;28;20281;-79
2022/12/28 03:32:49;;;;;;;8.43;1.60;;;4.30;99.90;;;;;;5071523;28;20247;-80
2022/12/28 03:35:20;;;;;;;5.87;1.63;;;4.20;99.90;;;;;;5068630;28;20416;-80
2022/12/28 03:37:53;;;;;;;4.80;1.70;;;4.20;99.90;;;;;;5067557;28;20283;-79
2022/12/28 03:40:28;;;;;;;3.30;1.40;;;4.10;99.90;;;;;;5065670;28;20264;-79
2022/12/28 03:45:51;;;;;;;5.70;1.60;;;4.00;99.90;;;;;;5076579;28;20219;-79
2022/12/28 03:48:21;;;;;;;3.70;1.37;;;4.10;99.90;;;;;;5059551;28;20258;-79
2022/12/28 03:50:51;;;;;;;5.13;1.70;;;4.10;99.90;;;;;;5064547;28;20245;-79
2022/12/28 03:53:24;;;;;;;3.87;1.70;;;4.00;99.90;;;;;;5065405;28;20322;-78
2022/12/28 03:56:06;;;;;;;3.77;1.53;;;3.90;99.90;;;;;;5064012;28;20253;-78
2022/12/28 03:58:33;;;;;;;4.07;1.87;;;3.90;99.90;;;;;;5057845;28;20311;-79
2022/12/28 04:01:00;;;;;;;3.90;1.50;;;3.90;99.90;;;;;;5063244;28;20224;-79
2022/12/28 04:03:26;;;;;;;7.10;1.67;;;3.80;99.90;;;;;;5063523;28;20235;-78
2022/12/28 04:05:55;;;;;;;5.27;1.67;;;3.80;99.90;;;;;;5064355;28;20251;-78
2022/12/28 04:08:22;;;;;;;5.27;1.87;;;3.70;99.90;;;;;;5053630;22;20618;-78
2022/12/28 04:10:49;;;;;;;4.77;1.80;;;3.60;99.90;;;;;;5032240;28;20236;-77
2022/12/28 04:13:16;;;;;;;6.07;1.73;;;3.60;99.90;;;;;;5034585;28;20209;-78
2022/12/28 04:16:02;;;;;;;3.60;1.80;;;3.50;99.90;;;;;;5021375;28;21062;-79
2022/12/28 04:18:31;;;;;;;3.60;1.53;;;3.40;99.90;;;;;;5035262;28;20221;-78
2022/12/28 04:20:59;;;;;;;4.47;1.70;;;3.40;99.90;;;;;;5019384;28;20227;-78
2022/12/28 04:23:27;;;;;;;6.03;2.17;;;3.30;99.90;;;;;;5017429;28;20283;-78
2022/12/28 04:26:10;;;;;;;5.13;1.90;;;3.30;99.90;;;;;;5031819;28;20340;-77
2022/12/28 04:28:38;;;;;;;7.23;1.63;;;3.20;99.90;;;;;;5014757;28;20246;-78
2022/12/28 04:31:17;;;;;;;3.30;1.73;;;3.30;99.90;;;;;;5019941;28;20308;-77
2022/12/28 04:33:50;;;;;;;5.53;1.93;;;3.20;99.90;;;;;;5015376;28;20221;-78
2022/12/28 04:36:18;;;;;;;4.70;2.03;;;3.20;99.90;;;;;;5021169;28;20220;-77
2022/12/28 04:38:48;;;;;;;5.27;1.67;;;3.10;99.90;;;;;;5016707;28;20303;-77
2022/12/28 04:41:15;;;;;;;5.43;2.60;;;3.10;99.90;;;;;;5015962;28;20220;-78
2022/12/28 04:43:42;;;;;;;5.27;1.90;;;3.00;99.90;;;;;;5020952;28;20237;-78
2022/12/28 04:46:12;;;;;;;6.87;1.77;;;3.10;99.90;;;;;;5019664;28;20213;-78
2022/12/28 04:48:39;;;;;;;6.43;1.60;;;3.00;99.90;;;;;;5017052;28;20278;-78
2022/12/28 04:51:07;;;;;;;4.57;1.60;;;3.00;99.90;;;;;;5010602;28;20217;-78
2022/12/28 04:53:38;;;;;;;6.73;2.00;;;3.00;99.90;;;;;;5038799;28;20216;-77
2022/12/28 04:56:06;;;;;;;5.03;1.80;;;3.00;99.90;;;;;;5023048;28;20228;-77
2022/12/28 04:58:33;;;;;;;2.50;1.73;;;3.00;99.90;;;;;;5012911;28;20232;-77
2022/12/28 05:01:04;;;;;;;4.10;2.00;;;3.00;99.90;;;;;;5012663;28;20217;-76
2022/12/28 05:03:31;;;;;;;4.17;1.80;;;3.00;99.90;;;;;;5016248;28;20244;-77
2022/12/28 05:06:01;;;;;;;3.97;1.77;;;2.90;99.90;;;;;;5015954;28;20218;-76
2022/12/28 05:08:27;;;;;;;5.30;2.23;;;2.90;99.90;;;;;;5019291;28;20221;-78
2022/12/28 05:10:59;;;;;;;5.40;2.03;;;3.00;99.90;;;;;;5016084;28;20224;-79
2022/12/28 05:13:26;;;;;;;8.10;2.27;;;3.00;99.90;;;;;;5014297;28;20312;-77
2022/12/28 05:15:53;;;;;;;6.53;2.03;;;3.00;99.90;;;;;;5019940;28;20231;-77
2022/12/28 05:18:20;;;;;;;5.63;2.27;;;3.00;99.90;;;;;;5021249;28;20240;-78
2022/12/28 05:20:47;;;;;;;7.13;1.93;;;2.90;99.90;;;;;;5012707;28;20296;-78
2022/12/28 05:23:13;;;;;;;5.77;2.07;;;2.90;99.90;;;;;;5015868;28;20226;-80
2022/12/28 05:25:40;;;;;;;2.90;1.93;;;2.90;99.90;;;;;;5015777;28;20229;-80
2022/12/28 05:28:08;;;;;;;7.07;2.43;;;2.90;99.90;;;;;;5020208;28;20266;-81
2022/12/28 05:30:38;;;;;;;5.57;2.13;;;3.00;99.90;;;;;;5015285;28;20223;-84
2022/12/28 05:33:04;;;;;;;5.77;2.60;;;3.00;99.90;;;;;;5010867;28;20788;-83
2022/12/28 05:35:31;;;;;;;6.57;2.40;;;3.00;99.90;;;;;;5016355;28;20704;-80
2022/12/28 05:37:58;;;;;;;6.87;2.47;;;3.00;99.90;;;;;;5019151;28;20247;-81
2022/12/28 05:40:24;;;;;;;18.67;2.80;;;3.00;99.90;;;;;;5016894;28;20233;-81
2022/12/28 05:42:54;;;;;;;11.87;2.63;;;3.00;99.90;;;;;;5015495;28;20213;-80
2022/12/28 05:45:22;;;;;;;11.03;2.57;;;3.00;99.90;;;;;;5030977;28;20286;-81
2022/12/28 05:47:51;;;;;;;5.03;1.93;;;3.10;99.90;;;;;;5011118;28;20286;-81
2022/12/28 05:50:18;;;;;;;10.10;2.80;;;3.10;99.90;;;;;;5018089;28;20550;-83
2022/12/28 05:52:45;;;;;;;26.70;3.60;;;3.10;99.90;;;;;;5013546;28;20295;-82
2022/12/28 05:55:12;;;;;;;7.30;2.47;;;3.10;99.90;;;;;;5011318;28;20225;-82
2022/12/28 05:57:39;;;;;;;7.77;2.43;;;3.10;99.90;;;;;;5015529;28;20264;-82
2022/12/28 06:00:07;;;;;;;8.10;2.60;;;3.20;99.90;;;;;;5017964;28;20724;-83
2022/12/28 06:02:42;;;;;;;13.37;3.40;;;3.10;99.90;;;;;;5008454;28;22271;-84
2022/12/28 06:05:09;;;;;;;8.13;2.40;;;3.20;99.90;;;;;;4993384;28;20216;-82
2022/12/28 06:07:35;;;;;;;8.10;2.73;;;3.20;99.90;;;;;;5011849;28;20230;-83
2022/12/28 06:10:02;;;;;;;14.37;3.03;;;3.20;99.90;;;;;;5013940;28;20223;-84
2022/12/28 06:12:29;;;;;;;10.93;2.80;;;3.20;99.90;;;;;;5012810;28;20225;-83
2022/12/28 06:14:55;;;;;;;4.70;2.67;;;3.30;99.90;;;;;;5019774;28;20238;-81
2022/12/28 06:17:22;;;;;;;8.97;3.23;;;3.30;99.90;;;;;;5014648;28;20324;-81
2022/12/28 06:19:50;;;;;;;7.40;3.20;;;3.30;99.90;;;;;;5021856;28;20251;-81
2022/12/28 06:22:17;;;;;;;6.60;2.80;;;3.20;99.90;;;;;;5021199;28;20232;-81
2022/12/28 06:24:43;;;;;;;4.87;2.83;;;3.20;99.90;;;;;;5021888;28;20242;-81
2022/12/28 06:27:10;;;;;;;24.50;4.23;;;3.30;99.90;;;;;;5019500;28;20251;-81
2022/12/28 06:29:37;;;;;;;7.43;2.60;;;3.30;99.90;;;;;;5026264;28;20221;-81
2022/12/28 06:32:04;;;;;;;7.40;3.60;;;3.30;99.90;;;;;;5012180;28;20702;-81
2022/12/28 06:34:31;;;;;;;8.23;4.73;;;3.30;99.90;;;;;;5015822;28;20221;-81
2022/12/28 06:36:59;;;;;;;5.93;3.33;;;3.40;99.90;;;;;;5019358;28;20218;-81
2022/12/28 06:39:26;;;;;;;6.03;3.10;;;3.40;99.90;;;;;;5009761;28;20231;-80
2022/12/28 06:41:53;;;;;;;5.17;3.67;;;3.40;99.90;;;;;;5011235;28;20220;-85
2022/12/28 06:44:19;;;;;;;4.27;2.83;;;3.40;99.90;;;;;;5011052;28;20228;-87
2022/12/28 06:46:46;;;;;;;5.70;2.83;;;3.40;99.90;;;;;;5009666;28;20253;-85
2022/12/28 06:49:13;;;;;;;3.20;2.63;;;3.40;99.90;;;;;;5016165;28;20291;-86
2022/12/28 06:51:41;;;;;;;6.10;3.20;;;3.50;99.90;;;;;;5018256;28;20359;-87
2022/12/28 06:54:10;;;;;;;7.53;3.47;;;3.50;99.90;;;;;;5017956;28;21130;-86
2022/12/28 06:56:38;;;;;;;10.27;3.50;;;3.50;99.90;;;;;;5014562;28;20225;-88
2022/12/28 06:59:05;;;;;;;3.63;2.40;;;3.50;99.90;;;;;;5014969;28;20235;-85
2022/12/28 07:01:34;;;;;;;4.33;2.57;;;3.60;99.90;;;;;;5011573;28;20232;-87
2022/12/28 07:04:03;;;;;;;5.27;2.10;;;3.60;99.90;;;;;;5016362;28;20395;-86
2022/12/28 07:06:30;;;;;;;4.30;3.30;;;3.60;99.90;;;;;;5016651;28;20226;-85
2022/12/28 07:09:01;;;;;;;3.67;2.60;;;3.70;99.90;;;;;;5035398;28;20846;-87
2022/12/28 07:11:30;;;;;;;3.90;2.37;;;3.80;99.90;;;;;;5017813;28;20314;-85
2022/12/28 07:13:56;;;;;;;4.13;2.13;;;3.70;99.90;;;;;;5015224;28;20223;-84
2022/12/28 07:16:26;;;;;;;5.13;2.47;;;3.80;99.90;;;;;;5022404;28;20262;-85
2022/12/28 07:18:53;;;;;;;4.10;2.30;;;3.80;99.90;;;;;;5022388;28;20316;-84
2022/12/28 07:21:22;;;;;;;4.43;2.23;;;3.80;99.90;;;;;;5013694;28;20219;-84
2022/12/28 07:23:49;;;;;;;4.63;2.80;;;3.80;99.90;;;;;;5017307;28;20225;-84
2022/12/28 07:26:19;;;;;;;3.50;2.17;;;3.90;99.90;;;;;;5017453;28;20217;-85
2022/12/28 07:28:49;;;;;;;2.27;1.90;;;4.00;99.90;;;;;;5017905;28;20788;-84
2022/12/28 07:31:18;;;;;;;3.27;2.03;;;3.90;99.90;;;;;;5006489;28;20716;-85
2022/12/28 07:33:46;;;;;;;4.53;2.37;;;4.00;99.90;;;;;;5015431;28;20222;-85
2022/12/28 07:36:14;;;;;;;2.73;2.00;;;4.00;99.90;;;;;;5020466;28;20226;-85
2022/12/28 07:38:41;;;;;;;2.77;2.00;;;4.00;99.90;;;;;;5015486;28;20242;-85
2022/12/28 07:41:09;;;;;;;3.57;1.90;;;4.10;99.90;;;;;;5023333;28;20296;-86
2022/12/28 07:43:36;;;;;;;2.87;2.17;;;4.10;99.90;;;;;;5019204;28;20300;-85
2022/12/28 07:46:07;;;;;;;2.67;1.93;;;4.20;99.90;;;;;;5017166;28;20577;-86
2022/12/28 07:48:35;;;;;;;3.73;1.60;;;4.30;99.90;;;;;;5015821;28;20925;-85
2022/12/28 07:51:07;;;;;;;3.70;1.90;;;4.30;99.90;;;;;;5019672;28;20260;-86
2022/12/28 07:53:36;;;;;;;2.00;1.80;;;4.30;99.90;;;;;;5021618;28;20242;-85
2022/12/28 07:56:04;;;;;;;4.37;1.80;;;4.40;99.90;;;;;;5017927;28;20739;-85
2022/12/28 07:58:30;;;;;;;2.00;1.60;;;4.40;99.90;;;;;;5013512;28;20298;-85
2022/12/28 08:01:05;;;;;;;3.47;1.93;;;4.50;99.90;;;;;;5019832;28;20233;-85
2022/12/28 08:03:31;;;;;;;2.13;1.80;;;4.50;99.90;;;;;;5016983;28;20237;-86
2022/12/28 08:06:03;;;;;;;1.63;1.40;;;4.60;99.90;;;;;;5014030;28;20309;-86
2022/12/28 08:08:30;;;;;;;4.03;1.67;;;4.60;99.90;;;;;;5017419;28;20637;-85
2022/12/28 08:11:01;;;;;;;1.87;1.60;;;4.60;99.90;;;;;;5018405;28;20486;-85
2022/12/28 08:13:30;;;;;;;2.73;1.60;;;4.70;99.90;;;;;;5018780;28;20894;-85
2022/12/28 08:15:57;;;;;;;3.10;1.90;;;4.70;99.90;;;;;;5015069;28;20759;-84
2022/12/28 08:18:25;;;;;;;1.83;1.60;;;4.70;99.90;;;;;;5019877;28;20242;-85
2022/12/28 08:20:54;;;;;;;2.50;2.03;;;4.80;99.90;;;;;;5015317;28;20564;-85
2022/12/28 08:23:22;;;;;;;1.87;1.77;;;4.80;99.90;;;;;;5014803;28;20660;-85
2022/12/28 08:25:48;;;;;;;3.80;1.80;;;4.90;99.90;;;;;;5016611;28;20642;-85
2022/12/28 08:28:15;;;;;;;2.10;1.80;;;4.90;99.90;;;;;;5018457;28;20705;-86
2022/12/28 08:30:42;;;;;;;2.20;1.87;;;4.90;99.90;;;;;;5008150;28;20237;-86
2022/12/28 08:33:08;;;;;;;2.43;1.93;;;5.00;99.90;;;;;;5013733;28;20241;-85
2022/12/28 08:35:36;;;;;;;2.77;2.17;;;5.00;99.90;;;;;;5013147;28;20225;-85
2022/12/28 08:38:03;;;;;;;1.90;1.70;;;5.00;99.90;;;;;;5025462;28;20221;-85
2022/12/28 08:40:30;;;;;;;2.07;1.87;;;5.00;99.90;;;;;;5017224;28;20241;-83
2022/12/28 08:42:58;;;;;;;2.40;1.87;;;5.10;99.90;;;;;;5013826;28;20683;-84
2022/12/28 08:45:24;;;;;;;2.10;1.90;;;5.10;99.90;;;;;;5017080;28;20234;-85
2022/12/28 08:47:52;;;;;;;2.13;1.93;;;5.10;99.90;;;;;;5014201;28;20256;-85
2022/12/28 08:50:18;;;;;;;2.17;1.97;;;5.20;99.90;;;;;;5021385;28;20221;-85
2022/12/28 08:52:46;;;;;;;2.47;2.00;;;5.20;99.90;;;;;;5012480;28;20216;-85
2022/12/28 08:55:13;;;;;;;2.60;2.40;;;5.30;99.90;;;;;;5020678;28;20251;-84
2022/12/28 08:57:40;;;;;;;3.73;2.30;;;5.30;99.90;;;;;;5022693;28;20231;-85
2022/12/28 09:00:08;;;;;;;3.17;2.20;;;5.40;99.90;;;;;;5019447;28;20315;-85
2022/12/28 09:02:35;;;;;;;3.03;2.63;;;5.40;99.90;;;;;;5031818;28;20229;-85
2022/12/28 09:05:02;;;;;;;3.30;2.50;;;5.50;99.90;;;;;;5019210;28;20491;-85
2022/12/28 09:07:28;;;;;;;3.20;2.90;;;5.50;99.90;;;;;;5019436;28;20231;-83
2022/12/28 09:09:56;;;;;;;3.47;3.17;;;5.60;99.90;;;;;;5035625;28;20228;-85
2022/12/28 09:12:23;;;;;;;3.30;2.70;;;5.60;99.90;;;;;;5025726;28;20675;-84
2022/12/28 09:14:50;;;;;;;3.17;2.87;;;5.60;99.90;;;;;;5021041;28;20228;-81
2022/12/28 09:17:16;;;;;;;3.93;3.00;;;5.60;99.90;;;;;;5017601;28;20223;-82
2022/12/28 09:19:43;;;;;;;3.40;3.10;;;5.70;99.90;;;;;;5020846;28;21012;-82
2022/12/28 09:22:10;;;;;;;3.53;3.23;;;5.70;99.90;;;;;;5028370;28;20356;-82
2022/12/28 09:24:36;;;;;;;4.40;4.00;;;5.80;99.90;;;;;;5027710;28;20678;-82
2022/12/28 09:27:04;;;;;;;4.40;4.00;;;5.80;99.90;;;;;;5021750;28;20235;-83
2022/12/28 09:29:31;;;;;;;5.07;4.30;;;5.90;99.90;;;;;;5023595;28;20232;-82
2022/12/28 09:32:00;;;;;;;5.20;4.67;;;5.90;99.90;;;;;;5032550;28;20251;-82
2022/12/28 09:34:27;;;;;;;5.10;4.60;;;6.00;99.90;;;;;;5037443;28;20225;-83
2022/12/28 09:36:54;;;;;;;5.27;4.77;;;6.00;99.90;;;;;;5022284;28;20230;-82
2022/12/28 09:39:23;;;;;;;5.70;4.77;;;6.10;99.90;;;;;;5025904;28;20227;-83
2022/12/28 09:41:53;;;;;;;5.87;5.27;;;6.10;99.90;;;;;;5016181;28;20319;-82
2022/12/28 09:44:55;;;;;;;5.90;5.30;;;6.10;99.90;;;;;;5020975;28;20225;-82
2022/12/28 09:47:35;;;;;;;6.47;5.87;;;6.20;99.90;;;;;;4923773;29;20309;-83
2022/12/28 09:50:22;;;;;;;6.97;6.27;;;6.20;99.90;;;;;;5020299;28;20256;-83
2022/12/28 09:52:59;;;;;;;6.80;6.10;;;6.30;99.90;;;;;;5026504;28;20230;-83
2022/12/28 09:55:26;;;;;;;7.53;6.07;;;6.30;99.90;;;;;;5017653;28;20221;-83
2022/12/28 09:57:55;;;;;;;6.00;5.40;;;6.40;99.90;;;;;;5027179;28;20235;-83
2022/12/28 10:00:25;;;;;;;6.50;5.83;;;6.40;99.90;;;;;;5026936;28;20218;-83
2022/12/28 10:02:57;;;;;;;6.63;6.03;;;6.40;99.90;;;;;;5020862;28;20231;-83
2022/12/28 10:05:24;;;;;;;6.77;6.07;;;6.50;99.90;;;;;;5026204;28;20732;-83
2022/12/28 10:07:52;;;;;;;6.70;6.00;;;6.50;99.90;;;;;;5028139;28;20229;-83
2022/12/28 10:10:23;;;;;;;5.67;5.17;;;6.50;99.90;;;;;;5026565;28;20225;-83
2022/12/28 10:12:51;;;;;;;6.03;5.20;;;6.60;99.90;;;;;;5026345;28;20320;-81
2022/12/28 10:15:19;;;;;;;6.20;5.00;;;6.60;99.90;;;;;;5024396;28;20221;-82
2022/12/28 10:17:47;;;;;;;5.03;4.63;;;6.60;99.90;;;;;;5014896;28;20346;-82
2022/12/28 10:20:16;;;;;;;5.40;4.90;;;6.70;99.90;;;;;;5030345;28;20250;-81
2022/12/28 10:22:44;;;;;;;5.50;5.00;;;6.70;99.90;;;;;;5021840;28;20229;-81
2022/12/28 10:25:14;;;;;;;5.20;4.70;;;6.70;99.90;;;;;;5015767;28;20231;-82
2022/12/28 10:27:40;;;;;;;5.30;4.83;;;6.80;99.90;;;;;;5024710;28;20744;-83
2022/12/28 10:30:15;;;;;;;6.27;5.47;;;6.80;99.90;;;;;;5015849;28;20227;-82
2022/12/28 10:32:51;;;;;;;4.87;4.47;;;6.80;99.90;;;;;;5022774;28;20238;-82
2022/12/28 10:35:29;;;;;;;5.57;4.90;;;6.80;99.90;;;;;;5034174;23;20338;-82
2022/12/28 10:38:01;;;;;;;5.93;5.43;;;6.90;99.90;;;;;;5034481;28;20224;-81
2022/12/28 10:40:30;;;;;;;5.53;5.00;;;6.90;99.90;;;;;;5019273;28;20233;-81
2022/12/28 10:42:59;;;;;;;4.77;4.37;;;7.00;99.90;;;;;;5029532;28;20566;-82
2022/12/28 10:45:33;;;;;;;5.30;4.80;;;7.00;99.90;;;;;;5016685;28;20240;-82
2022/12/28 10:48:03;;;;;;;5.40;4.90;;;7.00;99.90;;;;;;5008281;28;20225;-82
2022/12/28 10:50:51;;;;;;;5.13;4.67;;;7.00;99.90;;;;;;4995602;28;21393;-82
2022/12/28 10:53:30;;;;;;;5.90;5.30;;;7.10;99.90;;;;;;5003679;28;20220;-82
2022/12/28 10:56:07;;;;;;;6.37;5.43;;;7.10;99.90;;;;;;5004504;28;20217;-82
2022/12/28 10:58:34;;;;;;;5.43;4.93;;;7.10;99.90;;;;;;4997937;28;20224;-82
2022/12/28 11:01:06;;;;;;;5.80;5.30;;;7.20;99.90;;;;;;4995560;28;20221;-81
2022/12/28 11:03:36;;;;;;;5.53;5.00;;;7.20;99.90;;;;;;4999897;28;20240;-82
2022/12/28 11:06:14;;;;;;;5.23;4.73;;;7.20;99.90;;;;;;5003964;28;20228;-81
2022/12/28 11:08:42;;;;;;;5.70;5.10;;;7.20;99.90;;;;;;4997834;28;20324;-81
2022/12/28 11:11:19;;;;;;;5.83;5.33;;;7.30;99.90;;;;;;5007284;28;20237;-81
2022/12/28 11:13:48;;;;;;;5.43;4.70;;;7.30;99.90;;;;;;5002013;28;20241;-82
2022/12/28 11:16:15;;;;;;;5.33;4.83;;;7.30;99.90;;;;;;4994350;28;20495;-82
2022/12/28 11:18:43;;;;;;;5.67;4.97;;;7.30;99.90;;;;;;5002262;28;20231;-82
2022/12/28 11:21:11;;;;;;;9.63;5.23;;;7.40;99.90;;;;;;5006519;28;20232;-82
2022/12/28 11:23:38;;;;;;;12.10;5.53;;;7.30;99.90;;;;;;4991857;28;20297;-82
2022/12/28 11:26:09;;;;;;;5.10;4.30;;;7.40;99.90;;;;;;4996568;28;20229;-82
2022/12/28 11:28:35;;;;;;;6.07;5.23;;;7.40;99.90;;;;;;4988313;28;20236;-81
2022/12/28 11:31:04;;;;;;;6.47;5.00;;;7.40;99.90;;;;;;5004178;28;20225;-81
2022/12/28 11:33:37;;;;;;;6.30;5.70;;;7.50;99.90;;;;;;4999176;28;20753;-81
2022/12/28 11:36:13;;;;;;;6.97;6.27;;;7.50;99.90;;;;;;4995245;28;20226;-81
2022/12/28 11:38:43;;;;;;;4.83;4.40;;;7.50;99.90;;;;;;4999169;28;20234;-81
2022/12/28 11:41:11;;;;;;;5.30;4.73;;;7.50;99.90;;;;;;5004137;28;20226;-81
2022/12/28 11:43:48;;;;;;;4.87;4.47;;;7.50;99.90;;;;;;5006653;28;20235;-81
2022/12/28 11:46:38;;;;;;;4.10;3.63;;;7.50;99.90;;;;;;4996298;28;20571;-81
2022/12/28 11:49:23;;;;;;;3.20;2.90;;;7.60;99.90;;;;;;5004270;28;20310;-81
2022/12/28 11:52:44;;;;;;;4.43;3.30;;;7.60;99.90;;;;;;4999714;28;20248;-81
2022/12/28 11:55:50;;;;;;;3.60;2.87;;;7.60;99.90;;;;;;4999363;28;20323;-81
2022/12/28 11:59:04;;;;;;;2.43;2.23;;;7.60;99.90;;;;;;5003773;28;20225;-81
2022/12/28 12:01:47;;;;;;;3.27;2.97;;;7.60;99.90;;;;;;4995499;28;20316;-81
2022/12/28 12:04:36;;;;;;;2.70;2.50;;;7.60;99.90;;;;;;5002626;28;20334;-81
2022/12/28 12:07:26;;;;;;;3.90;2.50;;;7.60;99.90;;;;;;5019065;28;20223;-81
2022/12/28 12:10:33;;;;;;;2.60;2.40;;;7.60;99.90;;;;;;5002273;28;20223;-81
2022/12/28 12:13:01;;;;;;;2.67;2.20;;;7.70;99.90;;;;;;5006442;28;20271;-81
2022/12/28 12:15:37;;;;;;;2.40;2.20;;;7.60;99.90;;;;;;5002122;28;20240;-81
2022/12/28 12:18:08;;;;;;;3.90;2.67;;;7.60;99.90;;;;;;5013926;28;20313;-81
2022/12/28 12:20:53;;;;;;;2.70;2.50;;;7.60;99.90;;;;;;5013017;28;20231;-81
2022/12/28 12:23:37;;;;;;;2.97;2.37;;;7.60;99.90;;;;;;4993588;28;20248;-81
2022/12/28 12:26:20;;;;;;;3.23;2.93;;;7.60;99.90;;;;;;5012372;28;20223;-81
2022/12/28 12:28:48;;;;;;;2.30;2.07;;;7.60;99.90;;;;;;5001812;28;20288;-81
2022/12/28 12:31:22;;;;;;;3.67;2.30;;;7.60;99.90;;;;;;4990657;28;20218;-81
2022/12/28 12:33:51;;;;;;;2.93;2.43;;;7.60;99.90;;;;;;4997513;28;20317;-81
2022/12/28 12:36:34;;;;;;;3.10;2.80;;;7.50;99.90;;;;;;5000771;28;20225;-82
2022/12/28 12:39:19;;;;;;;2.60;2.40;;;7.60;99.90;;;;;;5009985;28;20299;-81
2022/12/28 12:41:55;;;;;;;2.70;2.50;;;7.60;99.90;;;;;;5015398;28;20741;-80
2022/12/28 12:44:33;;;;;;;4.07;3.30;;;7.60;99.90;;;;;;4995606;28;20316;-80
2022/12/28 12:47:34;;;;;;;3.33;3.00;;;7.60;99.90;;;;;;4992581;28;20228;-82
2022/12/28 12:50:20;;;;;;;3.27;2.97;;;7.60;99.90;;;;;;5000446;28;20237;-81
2022/12/28 12:52:54;;;;;;;3.90;3.60;;;7.60;99.90;;;;;;5003373;28;20230;-81
2022/12/28 12:55:37;;;;;;;3.80;3.50;;;7.60;99.90;;;;;;5001198;28;20231;-80
2022/12/28 12:58:16;;;;;;;4.50;4.10;;;7.60;99.90;;;;;;5003818;28;20221;-81
2022/12/28 13:00:57;;;;;;;5.07;4.57;;;7.70;99.90;;;;;;4986943;28;20245;-81
2022/12/28 13:03:33;;;;;;;4.33;3.67;;;7.70;99.90;;;;;;4997513;28;20240;-80
2022/12/28 13:06:00;;;;;;;4.87;4.40;;;7.70;99.90;;;;;;4988446;28;20232;-81
2022/12/28 13:08:36;;;;;;;4.60;4.20;;;7.70;99.90;;;;;;5010273;28;20231;-81
2022/12/28 13:11:11;;;;;;;4.60;4.20;;;7.70;99.90;;;;;;4995991;28;20214;-81
2022/12/28 13:13:40;;;;;;;4.53;4.07;;;7.70;99.90;;;;;;4999507;28;20231;-81
2022/12/28 13:16:10;;;;;;;4.17;3.80;;;7.70;99.90;;;;;;4990774;28;20274;-81
2022/12/28 13:18:37;;;;;;;4.53;4.13;;;7.70;99.90;;;;;;4998262;28;20229;-80
2022/12/28 13:21:07;;;;;;;4.20;3.80;;;7.70;99.90;;;;;;4997017;28;20922;-81
2022/12/28 13:23:43;;;;;;;4.10;3.20;;;7.70;99.90;;;;;;4999638;28;20646;-81
2022/12/28 13:26:16;;;;;;;3.43;3.13;;;7.70;99.90;;;;;;4994465;28;20207;-81
2022/12/28 13:28:49;;;;;;;4.00;3.60;;;7.70;99.90;;;;;;4995199;28;20242;-81
2022/12/28 13:31:20;;;;;;;6.80;5.90;;;7.70;99.90;;;;;;4987634;28;20228;-81
2022/12/28 13:33:59;;;;;;;4.10;3.70;;;7.70;99.90;;;;;;4997981;28;20227;-81
2022/12/28 13:36:30;;;;;;;5.13;4.63;;;7.70;99.90;;;;;;4998970;28;20236;-84
2022/12/28 13:39:06;;;;;;;4.60;4.20;;;7.70;99.90;;;;;;5022324;28;20236;-86
2022/12/28 13:41:35;;;;;;;9.00;7.17;;;7.70;99.90;;;;;;4997132;28;20230;-85
2022/12/28 13:44:30;;;;;;;5.03;4.40;;;7.80;99.90;;;;;;5008061;28;20239;-85
2022/12/28 13:47:06;;;;;;;5.57;5.07;;;7.70;99.90;;;;;;5006632;28;20259;-85